sensor_id;sensor_type;location;lat;lon;timestamp;P1;durP1;ratioP1;P2;durP2;ratioP2
79747;SDS011;69232;47.488;19.268;2023-05-20T00:01:01;8.10;;;6.88;;
79747;SDS011;69232;47.488;19.268;2023-05-20T00:03:27;12.25;;;7.75;;
79747;SDS011;69232;47.488;19.268;2023-05-20T00:05:53;11.23;;;7.65;;
79747;SDS011;69232;47.488;19.268;2023-05-20T00:08:19;10.82;;;7.20;;
79747;SDS011;69232;47.488;19.268;2023-05-20T00:10:44;14.15;;;7.45;;
79747;SDS011;69232;47.488;19.268;2023-05-20T00:13:09;12.40;;;7.70;;
79747;SDS011;69232;47.488;19.268;2023-05-20T00:15:35;11.25;;;7.50;;
79747;SDS011;69232;47.488;19.268;2023-05-20T00:18:00;11.38;;;7.35;;
79747;SDS011;69232;47.488;19.268;2023-05-20T00:20:26;11.30;;;7.78;;
79747;SDS011;69232;47.488;19.268;2023-05-20T00:22:51;14.80;;;8.05;;
79747;SDS011;69232;47.488;19.268;2023-05-20T00:25:17;13.50;;;8.05;;
79747;SDS011;69232;47.488;19.268;2023-05-20T00:27:42;13.90;;;8.50;;
79747;SDS011;69232;47.488;19.268;2023-05-20T00:30:08;16.88;;;9.80;;
79747;SDS011;69232;47.488;19.268;2023-05-20T00:32:34;17.45;;;10.25;;
79747;SDS011;69232;47.488;19.268;2023-05-20T00:35:00;15.02;;;10.45;;
79747;SDS011;69232;47.488;19.268;2023-05-20T00:37:26;16.75;;;10.20;;
79747;SDS011;69232;47.488;19.268;2023-05-20T00:39:51;18.63;;;10.48;;
79747;SDS011;69232;47.488;19.268;2023-05-20T00:42:20;14.07;;;9.77;;
79747;SDS011;69232;47.488;19.268;2023-05-20T00:44:46;14.88;;;8.80;;
79747;SDS011;69232;47.488;19.268;2023-05-20T00:47:12;11.93;;;8.43;;
79747;SDS011;69232;47.488;19.268;2023-05-20T00:49:39;12.25;;;7.97;;
79747;SDS011;69232;47.488;19.268;2023-05-20T00:52:04;21.35;;;8.23;;
79747;SDS011;69232;47.488;19.268;2023-05-20T00:54:31;13.77;;;8.55;;
79747;SDS011;69232;47.488;19.268;2023-05-20T00:56:56;10.82;;;7.10;;
79747;SDS011;69232;47.488;19.268;2023-05-20T00:59:23;10.60;;;7.75;;
79747;SDS011;69232;47.488;19.268;2023-05-20T01:01:50;12.32;;;7.55;;
79747;SDS011;69232;47.488;19.268;2023-05-20T01:04:16;13.15;;;7.88;;
79747;SDS011;69232;47.488;19.268;2023-05-20T01:06:42;10.88;;;8.27;;
79747;SDS011;69232;47.488;19.268;2023-05-20T01:09:08;13.70;;;7.93;;
79747;SDS011;69232;47.488;19.268;2023-05-20T01:11:33;15.32;;;8.73;;
79747;SDS011;69232;47.488;19.268;2023-05-20T01:14:09;12.88;;;8.15;;
79747;SDS011;69232;47.488;19.268;2023-05-20T01:16:35;11.93;;;8.18;;
79747;SDS011;69232;47.488;19.268;2023-05-20T01:19:03;13.93;;;7.57;;
79747;SDS011;69232;47.488;19.268;2023-05-20T01:24:31;18.08;;;9.15;;
79747;SDS011;69232;47.488;19.268;2023-05-20T01:26:56;11.93;;;7.30;;
79747;SDS011;69232;47.488;19.268;2023-05-20T01:29:23;16.67;;;7.95;;
79747;SDS011;69232;47.488;19.268;2023-05-20T01:31:49;12.55;;;7.25;;
79747;SDS011;69232;47.488;19.268;2023-05-20T01:34:15;16.45;;;8.18;;
79747;SDS011;69232;47.488;19.268;2023-05-20T01:36:40;15.32;;;8.05;;
79747;SDS011;69232;47.488;19.268;2023-05-20T01:39:06;13.77;;;8.40;;
79747;SDS011;69232;47.488;19.268;2023-05-20T01:41:32;18.00;;;7.75;;
79747;SDS011;69232;47.488;19.268;2023-05-20T01:43:59;13.75;;;8.27;;
79747;SDS011;69232;47.488;19.268;2023-05-20T01:46:24;13.63;;;7.88;;
79747;SDS011;69232;47.488;19.268;2023-05-20T01:48:50;12.73;;;8.20;;
79747;SDS011;69232;47.488;19.268;2023-05-20T01:51:15;11.82;;;6.95;;
79747;SDS011;69232;47.488;19.268;2023-05-20T01:53:41;13.60;;;7.18;;
79747;SDS011;69232;47.488;19.268;2023-05-20T01:56:07;11.48;;;7.22;;
79747;SDS011;69232;47.488;19.268;2023-05-20T01:58:32;10.80;;;6.88;;
79747;SDS011;69232;47.488;19.268;2023-05-20T02:00:58;13.30;;;7.38;;
79747;SDS011;69232;47.488;19.268;2023-05-20T02:03:24;10.93;;;6.78;;
79747;SDS011;69232;47.488;19.268;2023-05-20T02:05:49;11.00;;;6.68;;
79747;SDS011;69232;47.488;19.268;2023-05-20T02:08:15;11.50;;;7.05;;
79747;SDS011;69232;47.488;19.268;2023-05-20T02:10:40;10.45;;;7.38;;
79747;SDS011;69232;47.488;19.268;2023-05-20T02:13:05;10.32;;;6.75;;
79747;SDS011;69232;47.488;19.268;2023-05-20T02:15:31;10.95;;;6.18;;
79747;SDS011;69232;47.488;19.268;2023-05-20T02:17:56;11.32;;;6.55;;
79747;SDS011;69232;47.488;19.268;2023-05-20T02:20:22;11.75;;;6.47;;
79747;SDS011;69232;47.488;19.268;2023-05-20T02:22:47;11.75;;;6.00;;
79747;SDS011;69232;47.488;19.268;2023-05-20T02:25:13;12.98;;;6.60;;
79747;SDS011;69232;47.488;19.268;2023-05-20T02:27:38;10.13;;;6.47;;
79747;SDS011;69232;47.488;19.268;2023-05-20T02:30:05;12.70;;;6.13;;
79747;SDS011;69232;47.488;19.268;2023-05-20T02:32:31;11.27;;;6.30;;
79747;SDS011;69232;47.488;19.268;2023-05-20T02:34:57;16.50;;;7.07;;
79747;SDS011;69232;47.488;19.268;2023-05-20T02:37:22;13.57;;;6.82;;
79747;SDS011;69232;47.488;19.268;2023-05-20T02:39:48;10.85;;;6.45;;
79747;SDS011;69232;47.488;19.268;2023-05-20T02:42:14;12.88;;;6.88;;
79747;SDS011;69232;47.488;19.268;2023-05-20T02:44:39;14.27;;;7.40;;
79747;SDS011;69232;47.488;19.268;2023-05-20T02:47:05;12.07;;;6.65;;
79747;SDS011;69232;47.488;19.268;2023-05-20T02:49:30;11.52;;;6.82;;
79747;SDS011;69232;47.488;19.268;2023-05-20T02:51:56;14.27;;;7.22;;
79747;SDS011;69232;47.488;19.268;2023-05-20T02:54:21;17.52;;;7.65;;
79747;SDS011;69232;47.488;19.268;2023-05-20T02:56:46;12.35;;;7.75;;
79747;SDS011;69232;47.488;19.268;2023-05-20T02:59:12;11.68;;;7.43;;
79747;SDS011;69232;47.488;19.268;2023-05-20T03:01:37;13.13;;;6.82;;
79747;SDS011;69232;47.488;19.268;2023-05-20T03:04:04;13.82;;;7.28;;
79747;SDS011;69232;47.488;19.268;2023-05-20T03:06:30;15.63;;;6.90;;
79747;SDS011;69232;47.488;19.268;2023-05-20T03:08:58;13.60;;;7.50;;
79747;SDS011;69232;47.488;19.268;2023-05-20T03:11:23;18.38;;;6.80;;
79747;SDS011;69232;47.488;19.268;2023-05-20T03:13:49;12.98;;;7.47;;
79747;SDS011;69232;47.488;19.268;2023-05-20T03:16:15;10.63;;;6.05;;
79747;SDS011;69232;47.488;19.268;2023-05-20T03:18:40;10.55;;;6.40;;
79747;SDS011;69232;47.488;19.268;2023-05-20T03:21:06;13.90;;;6.18;;
79747;SDS011;69232;47.488;19.268;2023-05-20T03:23:32;10.20;;;5.95;;
79747;SDS011;69232;47.488;19.268;2023-05-20T03:25:57;13.65;;;6.90;;
79747;SDS011;69232;47.488;19.268;2023-05-20T03:28:23;11.82;;;6.38;;
79747;SDS011;69232;47.488;19.268;2023-05-20T03:30:48;8.95;;;5.88;;
79747;SDS011;69232;47.488;19.268;2023-05-20T03:33:14;9.30;;;5.18;;
79747;SDS011;69232;47.488;19.268;2023-05-20T03:35:40;9.02;;;5.80;;
79747;SDS011;69232;47.488;19.268;2023-05-20T03:38:05;9.85;;;6.18;;
79747;SDS011;69232;47.488;19.268;2023-05-20T03:40:31;15.07;;;6.32;;
79747;SDS011;69232;47.488;19.268;2023-05-20T03:42:56;7.82;;;5.45;;
79747;SDS011;69232;47.488;19.268;2023-05-20T03:45:22;8.48;;;5.43;;
79747;SDS011;69232;47.488;19.268;2023-05-20T03:47:47;10.15;;;5.88;;
79747;SDS011;69232;47.488;19.268;2023-05-20T03:50:12;11.98;;;5.43;;
79747;SDS011;69232;47.488;19.268;2023-05-20T03:52:38;11.13;;;5.57;;
79747;SDS011;69232;47.488;19.268;2023-05-20T03:55:05;7.80;;;5.22;;
79747;SDS011;69232;47.488;19.268;2023-05-20T03:57:30;10.20;;;5.72;;
79747;SDS011;69232;47.488;19.268;2023-05-20T03:59:56;11.23;;;5.25;;
79747;SDS011;69232;47.488;19.268;2023-05-20T04:02:21;9.48;;;5.38;;
79747;SDS011;69232;47.488;19.268;2023-05-20T04:04:47;10.95;;;5.70;;
79747;SDS011;69232;47.488;19.268;2023-05-20T04:07:16;10.27;;;5.65;;
79747;SDS011;69232;47.488;19.268;2023-05-20T04:09:42;10.95;;;5.32;;
79747;SDS011;69232;47.488;19.268;2023-05-20T04:12:08;10.38;;;6.25;;
79747;SDS011;69232;47.488;19.268;2023-05-20T04:14:33;14.10;;;6.53;;
79747;SDS011;69232;47.488;19.268;2023-05-20T04:17:02;10.75;;;5.63;;
79747;SDS011;69232;47.488;19.268;2023-05-20T04:19:29;10.50;;;6.18;;
79747;SDS011;69232;47.488;19.268;2023-05-20T04:21:55;7.72;;;5.55;;
79747;SDS011;69232;47.488;19.268;2023-05-20T04:24:21;10.10;;;5.78;;
79747;SDS011;69232;47.488;19.268;2023-05-20T04:26:49;10.20;;;5.35;;
79747;SDS011;69232;47.488;19.268;2023-05-20T04:29:18;12.35;;;6.00;;
79747;SDS011;69232;47.488;19.268;2023-05-20T04:31:46;9.00;;;5.47;;
79747;SDS011;69232;47.488;19.268;2023-05-20T04:34:12;9.82;;;5.40;;
79747;SDS011;69232;47.488;19.268;2023-05-20T04:36:38;8.93;;;5.55;;
79747;SDS011;69232;47.488;19.268;2023-05-20T04:39:04;12.13;;;6.28;;
79747;SDS011;69232;47.488;19.268;2023-05-20T04:41:31;9.75;;;5.43;;
79747;SDS011;69232;47.488;19.268;2023-05-20T04:43:57;8.88;;;5.57;;
79747;SDS011;69232;47.488;19.268;2023-05-20T04:46:26;8.05;;;5.53;;
79747;SDS011;69232;47.488;19.268;2023-05-20T04:48:51;11.13;;;5.80;;
79747;SDS011;69232;47.488;19.268;2023-05-20T04:51:18;7.95;;;5.10;;
79747;SDS011;69232;47.488;19.268;2023-05-20T04:53:43;11.98;;;4.93;;
79747;SDS011;69232;47.488;19.268;2023-05-20T04:56:09;10.00;;;5.47;;
79747;SDS011;69232;47.488;19.268;2023-05-20T04:58:35;7.50;;;4.45;;
79747;SDS011;69232;47.488;19.268;2023-05-20T05:01:00;9.10;;;5.57;;
79747;SDS011;69232;47.488;19.268;2023-05-20T05:03:26;13.48;;;5.65;;
79747;SDS011;69232;47.488;19.268;2023-05-20T05:05:54;7.32;;;4.88;;
79747;SDS011;69232;47.488;19.268;2023-05-20T05:08:20;6.45;;;4.82;;
79747;SDS011;69232;47.488;19.268;2023-05-20T05:10:46;10.00;;;5.22;;
79747;SDS011;69232;47.488;19.268;2023-05-20T05:13:11;8.82;;;4.47;;
79747;SDS011;69232;47.488;19.268;2023-05-20T05:15:37;7.90;;;4.93;;
79747;SDS011;69232;47.488;19.268;2023-05-20T05:18:02;6.82;;;5.13;;
79747;SDS011;69232;47.488;19.268;2023-05-20T05:20:28;9.48;;;4.78;;
79747;SDS011;69232;47.488;19.268;2023-05-20T05:22:53;10.07;;;4.93;;
79747;SDS011;69232;47.488;19.268;2023-05-20T05:25:19;9.07;;;4.90;;
79747;SDS011;69232;47.488;19.268;2023-05-20T05:27:44;7.35;;;4.57;;
79747;SDS011;69232;47.488;19.268;2023-05-20T05:30:11;5.85;;;4.55;;
79747;SDS011;69232;47.488;19.268;2023-05-20T05:32:37;10.35;;;5.40;;
79747;SDS011;69232;47.488;19.268;2023-05-20T05:35:02;9.27;;;4.97;;
79747;SDS011;69232;47.488;19.268;2023-05-20T05:37:28;8.38;;;4.45;;
79747;SDS011;69232;47.488;19.268;2023-05-20T05:39:53;10.60;;;4.65;;
79747;SDS011;69232;47.488;19.268;2023-05-20T05:42:19;8.38;;;4.90;;
79747;SDS011;69232;47.488;19.268;2023-05-20T05:44:44;7.15;;;4.53;;
79747;SDS011;69232;47.488;19.268;2023-05-20T05:47:10;7.88;;;4.70;;
79747;SDS011;69232;47.488;19.268;2023-05-20T05:49:35;7.22;;;4.97;;
79747;SDS011;69232;47.488;19.268;2023-05-20T05:52:00;11.05;;;4.80;;
79747;SDS011;69232;47.488;19.268;2023-05-20T05:54:26;11.48;;;4.93;;
79747;SDS011;69232;47.488;19.268;2023-05-20T05:56:51;9.30;;;5.18;;
79747;SDS011;69232;47.488;19.268;2023-05-20T05:59:17;7.25;;;4.13;;
79747;SDS011;69232;47.488;19.268;2023-05-20T06:01:43;8.65;;;4.90;;
79747;SDS011;69232;47.488;19.268;2023-05-20T06:04:08;9.65;;;5.00;;
79747;SDS011;69232;47.488;19.268;2023-05-20T06:06:34;8.10;;;4.90;;
79747;SDS011;69232;47.488;19.268;2023-05-20T06:08:59;8.00;;;4.60;;
79747;SDS011;69232;47.488;19.268;2023-05-20T06:11:25;8.25;;;5.00;;
79747;SDS011;69232;47.488;19.268;2023-05-20T06:13:50;8.57;;;5.10;;
79747;SDS011;69232;47.488;19.268;2023-05-20T06:16:16;9.55;;;4.68;;
79747;SDS011;69232;47.488;19.268;2023-05-20T06:18:42;8.77;;;5.10;;
79747;SDS011;69232;47.488;19.268;2023-05-20T06:21:07;9.25;;;5.05;;
79747;SDS011;69232;47.488;19.268;2023-05-20T06:23:33;10.38;;;5.97;;
79747;SDS011;69232;47.488;19.268;2023-05-20T06:25:59;9.30;;;5.07;;
79747;SDS011;69232;47.488;19.268;2023-05-20T06:28:25;8.77;;;5.05;;
79747;SDS011;69232;47.488;19.268;2023-05-20T06:30:52;11.95;;;4.97;;
79747;SDS011;69232;47.488;19.268;2023-05-20T06:33:18;11.07;;;5.45;;
79747;SDS011;69232;47.488;19.268;2023-05-20T06:35:44;5.70;;;4.18;;
79747;SDS011;69232;47.488;19.268;2023-05-20T06:38:10;7.75;;;5.03;;
79747;SDS011;69232;47.488;19.268;2023-05-20T06:40:35;10.00;;;5.30;;
79747;SDS011;69232;47.488;19.268;2023-05-20T06:43:01;7.28;;;4.82;;
79747;SDS011;69232;47.488;19.268;2023-05-20T06:45:26;8.27;;;5.75;;
79747;SDS011;69232;47.488;19.268;2023-05-20T06:47:52;6.05;;;4.30;;
79747;SDS011;69232;47.488;19.268;2023-05-20T06:50:18;9.63;;;5.25;;
79747;SDS011;69232;47.488;19.268;2023-05-20T06:52:44;9.25;;;5.05;;
79747;SDS011;69232;47.488;19.268;2023-05-20T06:55:09;7.47;;;5.05;;
79747;SDS011;69232;47.488;19.268;2023-05-20T06:57:35;8.57;;;4.90;;
79747;SDS011;69232;47.488;19.268;2023-05-20T07:00:00;8.85;;;4.70;;
79747;SDS011;69232;47.488;19.268;2023-05-20T07:02:27;7.97;;;5.50;;
79747;SDS011;69232;47.488;19.268;2023-05-20T07:04:52;7.47;;;4.78;;
79747;SDS011;69232;47.488;19.268;2023-05-20T07:07:17;8.93;;;5.25;;
79747;SDS011;69232;47.488;19.268;2023-05-20T07:09:43;7.95;;;5.32;;
79747;SDS011;69232;47.488;19.268;2023-05-20T07:12:09;11.90;;;5.60;;
79747;SDS011;69232;47.488;19.268;2023-05-20T07:14:34;7.30;;;5.22;;
79747;SDS011;69232;47.488;19.268;2023-05-20T07:16:59;9.57;;;5.63;;
79747;SDS011;69232;47.488;19.268;2023-05-20T07:19:25;8.95;;;5.53;;
79747;SDS011;69232;47.488;19.268;2023-05-20T07:21:50;6.47;;;4.22;;
79747;SDS011;69232;47.488;19.268;2023-05-20T07:24:16;7.25;;;5.03;;
79747;SDS011;69232;47.488;19.268;2023-05-20T07:26:41;12.20;;;5.60;;
79747;SDS011;69232;47.488;19.268;2023-05-20T07:29:08;9.75;;;5.13;;
79747;SDS011;69232;47.488;19.268;2023-05-20T07:31:34;7.90;;;4.80;;
79747;SDS011;69232;47.488;19.268;2023-05-20T07:34:00;6.65;;;5.00;;
79747;SDS011;69232;47.488;19.268;2023-05-20T07:36:28;9.38;;;5.47;;
79747;SDS011;69232;47.488;19.268;2023-05-20T07:38:53;9.20;;;4.80;;
79747;SDS011;69232;47.488;19.268;2023-05-20T07:41:19;9.63;;;5.32;;
79747;SDS011;69232;47.488;19.268;2023-05-20T07:43:45;9.95;;;5.47;;
79747;SDS011;69232;47.488;19.268;2023-05-20T07:46:10;7.90;;;4.95;;
79747;SDS011;69232;47.488;19.268;2023-05-20T07:48:36;10.70;;;5.50;;
79747;SDS011;69232;47.488;19.268;2023-05-20T07:51:01;8.98;;;4.78;;
79747;SDS011;69232;47.488;19.268;2023-05-20T07:53:27;16.10;;;5.82;;
79747;SDS011;69232;47.488;19.268;2023-05-20T07:55:52;9.00;;;5.13;;
79747;SDS011;69232;47.488;19.268;2023-05-20T07:58:18;8.07;;;5.40;;
79747;SDS011;69232;47.488;19.268;2023-05-20T08:00:43;10.10;;;5.72;;
79747;SDS011;69232;47.488;19.268;2023-05-20T08:03:09;9.50;;;5.35;;
79747;SDS011;69232;47.488;19.268;2023-05-20T08:05:36;12.73;;;5.40;;
79747;SDS011;69232;47.488;19.268;2023-05-20T08:08:02;8.27;;;5.57;;
79747;SDS011;69232;47.488;19.268;2023-05-20T08:10:27;8.68;;;5.30;;
79747;SDS011;69232;47.488;19.268;2023-05-20T08:12:53;8.55;;;5.03;;
79747;SDS011;69232;47.488;19.268;2023-05-20T08:15:18;8.15;;;5.43;;
79747;SDS011;69232;47.488;19.268;2023-05-20T08:17:44;8.07;;;5.25;;
79747;SDS011;69232;47.488;19.268;2023-05-20T08:20:10;8.20;;;5.25;;
79747;SDS011;69232;47.488;19.268;2023-05-20T08:22:36;9.82;;;5.43;;
79747;SDS011;69232;47.488;19.268;2023-05-20T08:25:02;9.40;;;6.03;;
79747;SDS011;69232;47.488;19.268;2023-05-20T08:27:28;8.60;;;5.13;;
79747;SDS011;69232;47.488;19.268;2023-05-20T08:29:54;8.43;;;4.93;;
79747;SDS011;69232;47.488;19.268;2023-05-20T08:32:20;8.38;;;5.90;;
79747;SDS011;69232;47.488;19.268;2023-05-20T08:34:45;10.32;;;4.95;;
79747;SDS011;69232;47.488;19.268;2023-05-20T08:37:13;11.77;;;5.57;;
79747;SDS011;69232;47.488;19.268;2023-05-20T08:39:38;9.85;;;5.18;;
79747;SDS011;69232;47.488;19.268;2023-05-20T08:42:04;10.73;;;5.50;;
79747;SDS011;69232;47.488;19.268;2023-05-20T08:44:32;7.00;;;5.25;;
79747;SDS011;69232;47.488;19.268;2023-05-20T08:46:57;9.48;;;5.53;;
79747;SDS011;69232;47.488;19.268;2023-05-20T08:49:23;11.40;;;6.13;;
79747;SDS011;69232;47.488;19.268;2023-05-20T08:51:48;12.50;;;5.78;;
79747;SDS011;69232;47.488;19.268;2023-05-20T08:54:13;8.70;;;5.45;;
79747;SDS011;69232;47.488;19.268;2023-05-20T08:56:40;8.32;;;5.55;;
79747;SDS011;69232;47.488;19.268;2023-05-20T08:59:07;9.77;;;5.20;;
79747;SDS011;69232;47.488;19.268;2023-05-20T09:01:33;7.25;;;5.47;;
79747;SDS011;69232;47.488;19.268;2023-05-20T09:04:04;8.55;;;5.80;;
79747;SDS011;69232;47.488;19.268;2023-05-20T09:06:40;9.48;;;5.53;;
79747;SDS011;69232;47.488;19.268;2023-05-20T09:09:09;9.20;;;5.20;;
79747;SDS011;69232;47.488;19.268;2023-05-20T09:11:35;9.57;;;5.70;;
79747;SDS011;69232;47.488;19.268;2023-05-20T09:14:01;14.05;;;5.93;;
79747;SDS011;69232;47.488;19.268;2023-05-20T09:16:26;8.27;;;5.60;;
79747;SDS011;69232;47.488;19.268;2023-05-20T09:18:55;6.95;;;5.05;;
79747;SDS011;69232;47.488;19.268;2023-05-20T09:21:24;9.23;;;5.68;;
79747;SDS011;69232;47.488;19.268;2023-05-20T09:23:53;12.32;;;5.72;;
79747;SDS011;69232;47.488;19.268;2023-05-20T09:26:21;13.02;;;6.15;;
79747;SDS011;69232;47.488;19.268;2023-05-20T09:28:49;10.88;;;5.55;;
79747;SDS011;69232;47.488;19.268;2023-05-20T09:31:15;7.10;;;5.45;;
79747;SDS011;69232;47.488;19.268;2023-05-20T09:33:40;7.50;;;5.22;;
79747;SDS011;69232;47.488;19.268;2023-05-20T09:36:06;9.25;;;5.90;;
79747;SDS011;69232;47.488;19.268;2023-05-20T09:38:33;9.80;;;5.05;;
79747;SDS011;69232;47.488;19.268;2023-05-20T09:41:10;10.00;;;5.47;;
79747;SDS011;69232;47.488;19.268;2023-05-20T09:43:40;9.00;;;6.00;;
79747;SDS011;69232;47.488;19.268;2023-05-20T09:46:06;10.57;;;6.30;;
79747;SDS011;69232;47.488;19.268;2023-05-20T09:48:32;10.80;;;6.00;;
79747;SDS011;69232;47.488;19.268;2023-05-20T09:51:00;13.18;;;6.25;;
79747;SDS011;69232;47.488;19.268;2023-05-20T09:53:26;11.98;;;6.30;;
79747;SDS011;69232;47.488;19.268;2023-05-20T09:55:52;9.10;;;5.72;;
79747;SDS011;69232;47.488;19.268;2023-05-20T09:58:19;8.38;;;5.43;;
79747;SDS011;69232;47.488;19.268;2023-05-20T10:00:44;8.93;;;6.07;;
79747;SDS011;69232;47.488;19.268;2023-05-20T10:03:10;7.63;;;4.97;;
79747;SDS011;69232;47.488;19.268;2023-05-20T10:05:37;10.07;;;6.47;;
79747;SDS011;69232;47.488;19.268;2023-05-20T10:16:27;14.10;;;5.75;;
79747;SDS011;69232;47.488;19.268;2023-05-20T10:19:08;10.48;;;5.72;;
79747;SDS011;69232;47.488;19.268;2023-05-20T10:21:35;9.95;;;5.47;;
79747;SDS011;69232;47.488;19.268;2023-05-20T10:24:08;12.68;;;5.25;;
79747;SDS011;69232;47.488;19.268;2023-05-20T10:26:37;8.75;;;5.07;;
79747;SDS011;69232;47.488;19.268;2023-05-20T10:29:14;9.93;;;5.88;;
79747;SDS011;69232;47.488;19.268;2023-05-20T10:31:44;9.07;;;5.40;;
79747;SDS011;69232;47.488;19.268;2023-05-20T10:34:16;9.23;;;5.65;;
79747;SDS011;69232;47.488;19.268;2023-05-20T10:39:27;13.85;;;5.90;;
79747;SDS011;69232;47.488;19.268;2023-05-20T10:42:06;8.48;;;5.00;;
79747;SDS011;69232;47.488;19.268;2023-05-20T10:44:42;8.63;;;5.60;;
79747;SDS011;69232;47.488;19.268;2023-05-20T10:47:11;7.57;;;5.13;;
79747;SDS011;69232;47.488;19.268;2023-05-20T10:49:42;11.02;;;5.80;;
79747;SDS011;69232;47.488;19.268;2023-05-20T10:52:09;7.60;;;4.82;;
79747;SDS011;69232;47.488;19.268;2023-05-20T10:54:35;7.85;;;5.57;;
79747;SDS011;69232;47.488;19.268;2023-05-20T10:57:07;8.73;;;5.18;;
79747;SDS011;69232;47.488;19.268;2023-05-20T10:59:35;9.63;;;5.68;;
79747;SDS011;69232;47.488;19.268;2023-05-20T11:02:01;10.88;;;5.75;;
79747;SDS011;69232;47.488;19.268;2023-05-20T11:04:27;7.82;;;5.10;;
79747;SDS011;69232;47.488;19.268;2023-05-20T11:06:53;8.68;;;5.65;;
79747;SDS011;69232;47.488;19.268;2023-05-20T11:09:20;11.07;;;5.53;;
79747;SDS011;69232;47.488;19.268;2023-05-20T11:11:45;8.60;;;5.40;;
79747;SDS011;69232;47.488;19.268;2023-05-20T11:14:11;8.50;;;5.60;;
79747;SDS011;69232;47.488;19.268;2023-05-20T11:16:41;11.85;;;5.97;;
79747;SDS011;69232;47.488;19.268;2023-05-20T11:19:07;11.15;;;5.32;;
79747;SDS011;69232;47.488;19.268;2023-05-20T11:21:33;12.13;;;5.88;;
79747;SDS011;69232;47.488;19.268;2023-05-20T11:23:59;10.43;;;5.65;;
79747;SDS011;69232;47.488;19.268;2023-05-20T11:26:25;8.68;;;5.43;;
79747;SDS011;69232;47.488;19.268;2023-05-20T11:28:50;8.63;;;5.85;;
79747;SDS011;69232;47.488;19.268;2023-05-20T11:31:16;7.03;;;5.07;;
79747;SDS011;69232;47.488;19.268;2023-05-20T11:33:42;9.82;;;5.25;;
79747;SDS011;69232;47.488;19.268;2023-05-20T11:36:08;11.15;;;5.95;;
79747;SDS011;69232;47.488;19.268;2023-05-20T11:38:33;8.02;;;5.82;;
79747;SDS011;69232;47.488;19.268;2023-05-20T11:40:59;9.68;;;5.53;;
79747;SDS011;69232;47.488;19.268;2023-05-20T11:43:24;11.80;;;6.13;;
79747;SDS011;69232;47.488;19.268;2023-05-20T11:45:54;8.38;;;5.88;;
79747;SDS011;69232;47.488;19.268;2023-05-20T11:48:23;8.07;;;5.63;;
79747;SDS011;69232;47.488;19.268;2023-05-20T11:50:48;8.48;;;5.32;;
79747;SDS011;69232;47.488;19.268;2023-05-20T11:53:15;7.82;;;5.75;;
79747;SDS011;69232;47.488;19.268;2023-05-20T11:55:43;10.10;;;5.53;;
79747;SDS011;69232;47.488;19.268;2023-05-20T11:58:17;9.63;;;5.43;;
79747;SDS011;69232;47.488;19.268;2023-05-20T12:00:43;8.63;;;4.80;;
79747;SDS011;69232;47.488;19.268;2023-05-20T12:03:08;13.43;;;5.30;;
79747;SDS011;69232;47.488;19.268;2023-05-20T12:05:35;10.60;;;5.13;;
79747;SDS011;69232;47.488;19.268;2023-05-20T12:08:00;8.75;;;4.85;;
79747;SDS011;69232;47.488;19.268;2023-05-20T12:10:26;10.20;;;5.50;;
79747;SDS011;69232;47.488;19.268;2023-05-20T12:12:51;7.72;;;5.03;;
79747;SDS011;69232;47.488;19.268;2023-05-20T12:15:16;9.02;;;5.57;;
79747;SDS011;69232;47.488;19.268;2023-05-20T12:17:49;8.52;;;5.18;;
79747;SDS011;69232;47.488;19.268;2023-05-20T12:20:16;12.05;;;5.45;;
79747;SDS011;69232;47.488;19.268;2023-05-20T12:22:42;8.93;;;5.90;;
79747;SDS011;69232;47.488;19.268;2023-05-20T12:25:10;8.02;;;6.07;;
79747;SDS011;69232;47.488;19.268;2023-05-20T12:27:36;10.35;;;5.38;;
79747;SDS011;69232;47.488;19.268;2023-05-20T12:30:02;6.25;;;4.68;;
79747;SDS011;69232;47.488;19.268;2023-05-20T12:32:27;7.22;;;5.32;;
79747;SDS011;69232;47.488;19.268;2023-05-20T12:34:52;8.18;;;5.20;;
79747;SDS011;69232;47.488;19.268;2023-05-20T12:37:18;8.82;;;5.03;;
79747;SDS011;69232;47.488;19.268;2023-05-20T12:39:43;8.95;;;5.25;;
79747;SDS011;69232;47.488;19.268;2023-05-20T12:42:09;11.70;;;5.60;;
79747;SDS011;69232;47.488;19.268;2023-05-20T12:44:34;11.23;;;5.35;;
79747;SDS011;69232;47.488;19.268;2023-05-20T12:46:59;11.30;;;5.97;;
79747;SDS011;69232;47.488;19.268;2023-05-20T12:49:25;8.75;;;6.43;;
79747;SDS011;69232;47.488;19.268;2023-05-20T12:51:50;10.32;;;5.75;;
79747;SDS011;69232;47.488;19.268;2023-05-20T12:54:16;9.13;;;5.60;;
79747;SDS011;69232;47.488;19.268;2023-05-20T12:56:41;12.48;;;5.90;;
79747;SDS011;69232;47.488;19.268;2023-05-20T12:59:11;9.65;;;5.88;;
79747;SDS011;69232;47.488;19.268;2023-05-20T13:01:37;8.90;;;5.95;;
79747;SDS011;69232;47.488;19.268;2023-05-20T13:04:02;13.05;;;6.57;;
79747;SDS011;69232;47.488;19.268;2023-05-20T13:06:28;11.57;;;6.60;;
79747;SDS011;69232;47.488;19.268;2023-05-20T13:08:54;8.27;;;5.80;;
79747;SDS011;69232;47.488;19.268;2023-05-20T13:11:19;10.13;;;6.80;;
79747;SDS011;69232;47.488;19.268;2023-05-20T13:13:45;10.90;;;6.38;;
79747;SDS011;69232;47.488;19.268;2023-05-20T13:16:11;8.63;;;5.13;;
79747;SDS011;69232;47.488;19.268;2023-05-20T13:18:36;8.70;;;6.25;;
79747;SDS011;69232;47.488;19.268;2023-05-20T13:21:01;7.95;;;5.50;;
79747;SDS011;69232;47.488;19.268;2023-05-20T13:23:27;11.80;;;6.22;;
79747;SDS011;69232;47.488;19.268;2023-05-20T13:25:52;8.32;;;6.25;;
79747;SDS011;69232;47.488;19.268;2023-05-20T13:28:18;11.50;;;5.95;;
79747;SDS011;69232;47.488;19.268;2023-05-20T13:30:44;8.48;;;5.82;;
79747;SDS011;69232;47.488;19.268;2023-05-20T13:33:10;9.13;;;5.72;;
79747;SDS011;69232;47.488;19.268;2023-05-20T13:35:36;9.40;;;6.07;;
79747;SDS011;69232;47.488;19.268;2023-05-20T13:38:01;8.38;;;5.80;;
79747;SDS011;69232;47.488;19.268;2023-05-20T13:40:27;11.10;;;7.03;;
79747;SDS011;69232;47.488;19.268;2023-05-20T13:42:52;10.52;;;6.28;;
79747;SDS011;69232;47.488;19.268;2023-05-20T13:45:18;10.00;;;5.80;;
79747;SDS011;69232;47.488;19.268;2023-05-20T13:47:43;9.63;;;6.65;;
79747;SDS011;69232;47.488;19.268;2023-05-20T13:50:09;12.13;;;6.88;;
79747;SDS011;69232;47.488;19.268;2023-05-20T13:52:35;14.85;;;6.47;;
79747;SDS011;69232;47.488;19.268;2023-05-20T13:55:00;16.20;;;6.30;;
79747;SDS011;69232;47.488;19.268;2023-05-20T13:57:26;10.32;;;5.85;;
79747;SDS011;69232;47.488;19.268;2023-05-20T13:59:51;10.35;;;5.97;;
79747;SDS011;69232;47.488;19.268;2023-05-20T14:02:17;13.57;;;6.10;;
79747;SDS011;69232;47.488;19.268;2023-05-20T14:04:42;11.23;;;5.72;;
79747;SDS011;69232;47.488;19.268;2023-05-20T14:07:10;9.18;;;5.43;;
79747;SDS011;69232;47.488;19.268;2023-05-20T14:09:36;9.05;;;6.00;;
79747;SDS011;69232;47.488;19.268;2023-05-20T14:12:02;9.82;;;6.03;;
79747;SDS011;69232;47.488;19.268;2023-05-20T14:14:28;14.38;;;5.85;;
79747;SDS011;69232;47.488;19.268;2023-05-20T14:16:53;9.95;;;5.72;;
79747;SDS011;69232;47.488;19.268;2023-05-20T14:19:19;10.35;;;6.13;;
79747;SDS011;69232;47.488;19.268;2023-05-20T14:21:44;12.35;;;5.97;;
79747;SDS011;69232;47.488;19.268;2023-05-20T14:24:09;9.00;;;5.93;;
79747;SDS011;69232;47.488;19.268;2023-05-20T14:26:35;13.77;;;5.70;;
79747;SDS011;69232;47.488;19.268;2023-05-20T14:29:00;8.25;;;5.93;;
79747;SDS011;69232;47.488;19.268;2023-05-20T14:31:26;10.23;;;5.60;;
79747;SDS011;69232;47.488;19.268;2023-05-20T14:33:51;10.85;;;5.25;;
79747;SDS011;69232;47.488;19.268;2023-05-20T14:36:17;10.20;;;6.03;;